createdAt,value
2022-10-15T00:01:22.480Z,100124.35
2022-10-15T00:03:49.538Z,100119.03
2022-10-15T00:06:19.691Z,100120.08
2022-10-15T00:08:48.086Z,100116.15
2022-10-15T00:11:18.977Z,100118.91
2022-10-15T00:13:46.143Z,100119.11
2022-10-15T00:16:19.673Z,100114.80
2022-10-15T00:18:48.308Z,100116.60
2022-10-15T00:21:18.217Z,100115.96
2022-10-15T00:23:46.152Z,100112.31
2022-10-15T00:26:16.505Z,100110.08
2022-10-15T00:28:44.061Z,100110.14
2022-10-15T00:31:14.624Z,100107.96
2022-10-15T00:33:42.211Z,100106.55
2022-10-15T00:36:20.078Z,100107.06
2022-10-15T00:38:48.276Z,100100.73
2022-10-15T00:41:19.422Z,100105.02
2022-10-15T00:43:54.104Z,100104.12
2022-10-15T00:46:27.715Z,100105.00
2022-10-15T00:49:20.972Z,100104.75
2022-10-15T00:52:10.893Z,100102.73
2022-10-15T00:54:42.490Z,100101.02
2022-10-15T00:57:11.250Z,100106.79
2022-10-15T00:59:47.816Z,100107.08
2022-10-15T01:02:18.251Z,100110.25
2022-10-15T01:04:46.281Z,100111.60
2022-10-15T01:07:13.387Z,100109.11
2022-10-15T01:09:43.060Z,100106.91
2022-10-15T01:12:33.338Z,100107.29
2022-10-15T01:15:14.576Z,100106.48
2022-10-15T01:18:10.129Z,100102.92
2022-10-15T01:20:49.365Z,100105.20
2022-10-15T01:23:31.563Z,100103.08
2022-10-15T01:26:14.576Z,100101.20
2022-10-15T01:28:54.181Z,100100.62
2022-10-15T01:32:03.240Z,100102.39
2022-10-15T01:34:45.217Z,100104.70
2022-10-15T01:37:21.853Z,100100.95
2022-10-15T01:39:57.778Z,100101.77
2022-10-15T01:42:30.516Z,100101.80
2022-10-15T01:45:02.961Z,100102.75
2022-10-15T01:48:11.461Z,100104.87
2022-10-15T01:51:01.763Z,100112.33
2022-10-15T01:53:29.920Z,100111.78
2022-10-15T01:56:20.392Z,100112.05
2022-10-15T01:58:51.352Z,100113.69
2022-10-15T02:01:18.418Z,100120.08
2022-10-15T02:03:51.132Z,100116.50
2022-10-15T02:06:44.548Z,100116.40
2022-10-15T02:09:25.285Z,100117.43
2022-10-15T02:12:04.526Z,100123.02
2022-10-15T02:14:56.193Z,100120.95
2022-10-15T02:17:34.873Z,100125.89
2022-10-15T02:20:07.643Z,100127.45
2022-10-15T02:22:38.266Z,100127.87
2022-10-15T02:25:15.766Z,100127.09
2022-10-15T02:27:47.925Z,100130.23
2022-10-15T02:30:16.575Z,100130.38
2022-10-15T02:32:47.600Z,100128.17
2022-10-15T02:35:14.959Z,100132.20
2022-10-15T02:37:47.641Z,100128.25
2022-10-15T02:40:17.741Z,100129.27
2022-10-15T02:42:44.767Z,100127.84
2022-10-15T02:45:11.782Z,100127.41
2022-10-15T02:47:39.673Z,100127.23
2022-10-15T02:50:06.850Z,100127.77
2022-10-15T02:52:33.840Z,100124.90
2022-10-15T02:55:00.933Z,100128.35
2022-10-15T02:57:27.949Z,100125.17
2022-10-15T02:59:54.980Z,100125.19
2022-10-15T03:02:22.091Z,100128.29
2022-10-15T03:04:49.076Z,100123.08
2022-10-15T03:07:16.167Z,100123.70
2022-10-15T03:09:43.367Z,100124.77
2022-10-15T03:12:10.533Z,100123.41
2022-10-15T03:14:37.586Z,100126.55
2022-10-15T03:17:04.850Z,100123.59
2022-10-15T03:19:31.844Z,100122.73
2022-10-15T03:21:58.883Z,100123.52
2022-10-15T03:24:30.704Z,100126.88
2022-10-15T03:26:58.033Z,100123.86
2022-10-15T03:29:25.979Z,100128.08
2022-10-15T03:31:58.214Z,100131.61
2022-10-15T03:34:25.337Z,100130.57
2022-10-15T03:36:52.388Z,100130.88
2022-10-15T03:39:19.590Z,100124.84
2022-10-15T03:41:46.623Z,100124.20
2022-10-15T03:44:18.891Z,100123.86
2022-10-15T03:49:33.871Z,100123.81
2022-10-15T03:52:02.614Z,100119.70
2022-10-15T03:54:29.855Z,100118.73
2022-10-15T03:56:56.962Z,100119.69
2022-10-15T03:59:36.102Z,100120.44
2022-10-15T04:02:03.662Z,100120.49
2022-10-15T04:04:31.296Z,100122.15
2022-10-15T04:06:58.605Z,100120.48
2022-10-15T04:09:26.121Z,100121.15
2022-10-15T04:11:57.071Z,100126.88
2022-10-15T04:14:24.220Z,100127.80
2022-10-15T04:16:51.350Z,100133.39
2022-10-15T04:19:21.169Z,100128.11
2022-10-15T04:21:57.888Z,100130.74
2022-10-15T04:24:30.906Z,100134.02
2022-10-15T04:26:57.888Z,100132.31
2022-10-15T04:29:25.192Z,100130.98
2022-10-15T04:31:53.548Z,100132.05
2022-10-15T04:34:20.549Z,100129.80
2022-10-15T04:36:48.156Z,100128.54
2022-10-15T04:39:19.884Z,100132.88
2022-10-15T04:41:46.915Z,100129.47
2022-10-15T04:44:17.399Z,100127.29
2022-10-15T04:46:49.615Z,100129.91
2022-10-15T04:49:35.176Z,100133.99
2022-10-15T04:52:03.890Z,100134.31
2022-10-15T04:54:37.382Z,100132.80
2022-10-15T04:57:06.129Z,100130.45
2022-10-15T04:59:33.332Z,100135.07
2022-10-15T05:02:19.432Z,100135.04
2022-10-15T05:04:50.542Z,100137.25
2022-10-15T05:07:17.593Z,100141.21
2022-10-15T05:09:46.613Z,100142.05
2022-10-15T05:12:14.776Z,100147.02
2022-10-15T05:14:42.160Z,100147.58
2022-10-15T05:17:18.540Z,100150.66
2022-10-15T05:19:45.587Z,100149.65
2022-10-15T05:22:22.994Z,100150.13
2022-10-15T05:24:53.108Z,100148.00
2022-10-15T05:27:35.144Z,100149.14
2022-10-15T05:30:04.755Z,100149.35
2022-10-15T05:32:57.757Z,100148.60
2022-10-15T05:35:26.110Z,100149.89
2022-10-15T05:37:55.294Z,100152.89
2022-10-15T05:40:23.256Z,100151.00
2022-10-15T05:43:25.863Z,100155.67
2022-10-15T05:45:57.042Z,100160.02
2022-10-15T05:48:24.546Z,100163.09
2022-10-15T05:50:51.946Z,100161.02
2022-10-15T05:53:23.608Z,100161.30
2022-10-15T05:55:54.959Z,100162.35
2022-10-15T05:58:23.573Z,100162.30
2022-10-15T06:00:58.813Z,100161.27
2022-10-15T06:03:26.890Z,100165.36
2022-10-15T06:05:54.501Z,100162.45
2022-10-15T06:08:23.108Z,100163.41
2022-10-15T06:10:50.116Z,100165.52
2022-10-15T06:13:17.656Z,100164.54
2022-10-15T06:15:46.617Z,100167.56
2022-10-15T06:18:16.284Z,100168.17
2022-10-15T06:20:44.372Z,100171.45
2022-10-15T06:23:12.230Z,100170.70
2022-10-15T06:25:39.757Z,100174.20
2022-10-15T06:28:07.431Z,100178.73
2022-10-15T06:30:42.113Z,100172.83
2022-10-15T06:35:42.148Z,100178.83
2022-10-15T06:38:09.184Z,100177.16
2022-10-15T06:40:38.908Z,100184.36
2022-10-15T06:43:11.498Z,100184.28
2022-10-15T06:45:42.083Z,100189.02
2022-10-15T06:48:17.540Z,100190.50
2022-10-15T06:50:44.787Z,100193.05
2022-10-15T06:53:11.765Z,100192.38
2022-10-15T06:55:39.699Z,100195.75
2022-10-15T06:58:06.779Z,100193.36
2022-10-15T07:03:07.420Z,100186.95
2022-10-15T07:05:34.963Z,100191.90
2022-10-15T07:08:02.145Z,100190.50
2022-10-15T07:10:29.646Z,100196.09
2022-10-15T07:13:00.895Z,100198.34
2022-10-15T07:15:29.332Z,100201.07
2022-10-15T07:17:57.989Z,100201.77
2022-10-15T07:20:25.070Z,100205.55
2022-10-15T07:23:00.475Z,100205.66
2022-10-15T07:25:30.518Z,100207.77
2022-10-15T07:27:58.053Z,100205.66
2022-10-15T07:30:28.976Z,100213.73
2022-10-15T07:33:00.009Z,100212.86
2022-10-15T07:35:28.095Z,100213.48
2022-10-15T07:37:55.480Z,100217.71
2022-10-15T07:40:22.836Z,100216.39
2022-10-15T07:42:54.564Z,100220.13
2022-10-15T07:45:22.562Z,100216.98
2022-10-15T07:47:50.122Z,100217.68
2022-10-15T07:50:17.265Z,100223.95
2022-10-15T07:52:45.261Z,100222.35
2022-10-15T07:55:12.958Z,100221.48
2022-10-15T07:57:40.352Z,100219.47
2022-10-15T08:00:08.329Z,100219.16
2022-10-15T08:02:39.798Z,100223.77
2022-10-15T08:05:07.236Z,100222.54
2022-10-15T08:07:34.207Z,100219.38
2022-10-15T08:10:02.008Z,100219.65
2022-10-15T08:12:29.049Z,100220.98
2022-10-15T08:14:56.007Z,100221.70
2022-10-15T08:17:22.987Z,100221.20
2022-10-15T08:19:50.103Z,100217.80
2022-10-15T08:22:17.137Z,100217.70
2022-10-15T08:24:44.279Z,100220.55
2022-10-15T08:27:11.290Z,100219.46
2022-10-15T08:29:39.552Z,100218.18
2022-10-15T08:32:06.620Z,100220.05
2022-10-15T08:34:33.927Z,100217.52
2022-10-15T08:37:02.921Z,100217.60
2022-10-15T08:39:30.068Z,100218.86
2022-10-15T08:42:04.000Z,100217.88
2022-10-15T08:44:43.731Z,100217.77
2022-10-15T08:47:36.910Z,100218.30
2022-10-15T08:50:50.394Z,100220.44
2022-10-15T08:53:23.538Z,100219.48
2022-10-15T08:56:02.258Z,100219.71
2022-10-15T08:58:47.776Z,100215.01
2022-10-15T09:01:29.458Z,100217.08
2022-10-15T09:04:19.847Z,100215.07
2022-10-15T09:06:50.573Z,100217.49
2022-10-15T09:09:49.603Z,100213.45
2022-10-15T09:12:22.558Z,100215.50
2022-10-15T09:14:50.409Z,100215.38
2022-10-15T09:17:25.183Z,100212.65
2022-10-15T09:19:58.126Z,100212.08
2022-10-15T09:22:31.694Z,100214.29
2022-10-15T09:24:58.774Z,100216.38
2022-10-15T09:27:35.960Z,100216.10
2022-10-15T09:30:06.282Z,100214.61
2022-10-15T09:32:54.362Z,100217.88
2022-10-15T09:35:49.733Z,100211.92
2022-10-15T09:38:36.646Z,100209.36
2022-10-15T09:41:16.900Z,100209.65
2022-10-15T09:43:51.554Z,100209.23
2022-10-15T09:46:19.803Z,100211.20
2022-10-15T09:49:03.646Z,100213.23
2022-10-15T09:51:45.716Z,100212.21
2022-10-15T09:54:15.769Z,100210.55
2022-10-15T09:56:52.493Z,100206.83
2022-10-15T09:59:22.190Z,100209.55
2022-10-15T10:02:03.239Z,100211.25
2022-10-15T10:04:33.065Z,100212.36
2022-10-15T10:07:07.629Z,100216.46
2022-10-15T10:09:39.159Z,100215.27
2022-10-15T10:12:09.014Z,100219.45
2022-10-15T10:14:41.354Z,100218.32
2022-10-15T10:17:21.242Z,100219.79
2022-10-15T10:20:04.365Z,100217.77
2022-10-15T10:22:50.400Z,100222.41
2022-10-15T10:25:45.363Z,100225.34
2022-10-15T10:28:12.308Z,100222.50
2022-10-15T10:31:09.771Z,100222.13
2022-10-15T10:33:39.785Z,100220.83
2022-10-15T10:38:40.395Z,100214.39
2022-10-15T10:41:10.177Z,100212.91
2022-10-15T10:43:52.241Z,100215.45
2022-10-15T10:46:20.884Z,100214.40
2022-10-15T10:48:52.880Z,100210.92
2022-10-15T10:51:25.528Z,100211.85
2022-10-15T10:53:59.895Z,100208.95
2022-10-15T10:56:41.002Z,100209.10
2022-10-15T10:59:19.904Z,100212.05
2022-10-15T11:01:50.336Z,100205.38
2022-10-15T11:04:38.270Z,100205.89
2022-10-15T11:07:48.290Z,100205.55
2022-10-15T11:10:31.960Z,100208.53
2022-10-15T11:13:30.365Z,100207.05
2022-10-15T11:16:08.756Z,100200.38
2022-10-15T11:19:18.630Z,100202.71
2022-10-15T11:22:05.830Z,100201.29
2022-10-15T11:25:07.161Z,100197.75
2022-10-15T11:27:46.983Z,100195.27
2022-10-15T11:30:32.401Z,100195.90
2022-10-15T11:33:08.890Z,100189.84
2022-10-15T11:35:54.392Z,100194.77
2022-10-15T11:38:38.701Z,100193.54
2022-10-15T11:41:16.020Z,100196.05
2022-10-15T11:43:46.322Z,100195.02
2022-10-15T11:46:25.853Z,100193.30
2022-10-15T11:49:30.960Z,100189.95
2022-10-15T11:52:33.784Z,100184.34
2022-10-15T11:55:10.940Z,100182.86
2022-10-15T11:57:40.481Z,100182.95
2022-10-15T12:00:33.145Z,100186.39
2022-10-15T12:03:12.387Z,100181.05
2022-10-15T12:05:53.739Z,100182.64
2022-10-15T12:08:22.934Z,100182.27
2022-10-15T12:11:27.255Z,100181.66
2022-10-15T12:14:12.878Z,100178.86
2022-10-15T12:16:48.901Z,100177.84
2022-10-15T12:19:24.600Z,100178.38
2022-10-15T12:21:56.745Z,100180.42
2022-10-15T12:24:44.762Z,100178.91
2022-10-15T12:27:16.309Z,100173.95
2022-10-15T12:29:43.353Z,100174.66
2022-10-15T12:32:27.707Z,100177.41
2022-10-15T12:35:01.204Z,100177.57
2022-10-15T12:37:31.895Z,100173.02
2022-10-15T12:40:03.731Z,100171.20
2022-10-15T12:42:32.113Z,100171.48
2022-10-15T12:45:05.473Z,100174.36
2022-10-15T12:48:17.576Z,100172.44
2022-10-15T12:50:46.422Z,100174.95
2022-10-15T12:56:10.905Z,100171.90
2022-10-15T12:58:47.078Z,100168.85
2022-10-15T13:01:14.176Z,100169.02
2022-10-15T13:03:54.178Z,100168.10
2022-10-15T13:06:21.328Z,100172.58
2022-10-15T13:09:17.005Z,100167.26
2022-10-15T13:11:49.068Z,100164.41
2022-10-15T13:14:39.357Z,100166.95
2022-10-15T13:17:21.087Z,100165.61
2022-10-15T13:20:02.955Z,100161.84
2022-10-15T13:22:31.585Z,100163.35
2022-10-15T13:25:00.177Z,100164.28
2022-10-15T13:27:33.385Z,100163.65
2022-10-15T13:30:09.609Z,100163.34
2022-10-15T13:32:44.453Z,100166.55
2022-10-15T13:35:18.062Z,100163.72
2022-10-15T13:37:47.073Z,100160.17
2022-10-15T13:40:31.574Z,100162.00
2022-10-15T13:43:06.481Z,100159.70
2022-10-15T13:45:33.940Z,100157.80
2022-10-15T13:48:01.301Z,100154.96
2022-10-15T13:50:34.925Z,100151.23
2022-10-15T13:53:07.395Z,100149.45
2022-10-15T13:55:37.065Z,100151.84
2022-10-15T13:58:17.274Z,100149.24
2022-10-15T14:01:01.267Z,100147.30
2022-10-15T14:03:32.691Z,100148.90
2022-10-15T14:06:32.643Z,100152.11
2022-10-15T14:09:27.366Z,100153.05
2022-10-15T14:11:59.129Z,100152.30
2022-10-15T14:14:37.064Z,100152.15
2022-10-15T14:17:07.730Z,100151.73
2022-10-15T14:19:38.549Z,100150.05
2022-10-15T14:22:06.450Z,100147.70
2022-10-15T14:24:39.128Z,100146.95
2022-10-15T14:27:20.641Z,100147.82
2022-10-15T14:29:50.618Z,100148.00
2022-10-15T14:32:23.916Z,100146.48
2022-10-15T14:34:53.719Z,100146.19
2022-10-15T14:37:36.241Z,100144.56
2022-10-15T14:40:08.420Z,100145.63
2022-10-15T14:42:49.085Z,100152.73
2022-10-15T14:45:19.197Z,100154.80
2022-10-15T14:47:52.900Z,100153.48
2022-10-15T14:50:20.967Z,100149.00
2022-10-15T14:52:51.902Z,100148.78
2022-10-15T14:55:38.436Z,100149.14
2022-10-15T14:58:18.363Z,100150.52
2022-10-15T15:00:49.526Z,100148.84
2022-10-15T15:03:22.244Z,100152.41
2022-10-15T15:05:53.018Z,100149.32
2022-10-15T15:08:21.715Z,100151.52
2022-10-15T15:10:51.535Z,100157.77
2022-10-15T15:13:27.068Z,100156.82
2022-10-15T15:15:55.001Z,100161.04
2022-10-15T15:18:22.512Z,100162.83
2022-10-15T15:20:51.521Z,100163.14
2022-10-15T15:23:25.810Z,100161.66
2022-10-15T15:25:54.489Z,100165.23
2022-10-15T15:28:25.034Z,100169.48
2022-10-15T15:31:05.682Z,100167.43
2022-10-15T15:33:33.239Z,100169.49
2022-10-15T15:36:12.480Z,100171.35
2022-10-15T15:38:40.283Z,100172.08
2022-10-15T15:41:20.803Z,100169.27
2022-10-15T15:43:48.592Z,100173.05
2022-10-15T15:46:16.026Z,100178.86
2022-10-15T15:48:43.282Z,100180.17
2022-10-15T15:51:28.352Z,100178.76
2022-10-15T15:53:56.066Z,100178.71
2022-10-15T15:56:23.435Z,100180.91
2022-10-15T15:58:51.502Z,100182.26
2022-10-15T16:01:19.994Z,100180.48
2022-10-15T16:03:47.609Z,100183.05
2022-10-15T16:06:14.633Z,100184.61
2022-10-15T16:08:41.779Z,100183.33
2022-10-15T16:11:08.939Z,100183.71
2022-10-15T16:13:36.173Z,100187.33
2022-10-15T16:16:03.640Z,100187.54
2022-10-15T16:18:30.639Z,100186.77
2022-10-15T16:20:57.791Z,100190.09
2022-10-15T16:23:24.889Z,100190.39
2022-10-15T16:25:52.544Z,100193.17
2022-10-15T16:28:19.626Z,100193.14
2022-10-15T16:30:46.747Z,100195.58
2022-10-15T16:33:13.802Z,100195.84
2022-10-15T16:35:41.252Z,100198.98
2022-10-15T16:38:09.075Z,100196.46
2022-10-15T16:40:36.158Z,100196.17
2022-10-15T16:43:03.161Z,100194.63
2022-10-15T16:45:30.194Z,100196.05
2022-10-15T16:47:57.510Z,100196.21
2022-10-15T16:50:24.762Z,100194.77
2022-10-15T16:52:51.781Z,100200.41
2022-10-15T16:55:18.955Z,100200.80
2022-10-15T16:57:46.010Z,100202.17
2022-10-15T17:00:13.580Z,100204.92
2022-10-15T17:02:40.717Z,100207.80
2022-10-15T17:05:08.445Z,100206.09
2022-10-15T17:07:35.483Z,100206.89
2022-10-15T17:10:02.726Z,100210.41
2022-10-15T17:12:29.828Z,100212.73
2022-10-15T17:14:56.876Z,100214.16
2022-10-15T17:17:24.084Z,100216.24
2022-10-15T17:19:51.336Z,100219.88
2022-10-15T17:22:18.487Z,100223.30
2022-10-15T17:24:45.474Z,100227.16
2022-10-15T17:27:12.850Z,100228.52
2022-10-15T17:29:39.898Z,100228.41
2022-10-15T17:32:07.330Z,100225.93
2022-10-15T17:34:34.684Z,100226.10
2022-10-15T17:37:02.558Z,100226.59
2022-10-15T17:39:29.573Z,100228.62
2022-10-15T17:41:56.611Z,100230.88
2022-10-15T17:44:23.704Z,100225.95
2022-10-15T17:46:52.905Z,100228.42
2022-10-15T17:49:26.422Z,100228.49
2022-10-15T17:51:53.573Z,100230.89
2022-10-15T17:54:20.653Z,100232.10
2022-10-15T17:56:48.730Z,100233.52
2022-10-15T17:59:15.934Z,100235.62
2022-10-15T18:02:00.714Z,100241.33
2022-10-15T18:04:31.300Z,100242.82
2022-10-15T18:06:58.294Z,100246.45
2022-10-15T18:09:27.023Z,100243.82
2022-10-15T18:12:00.569Z,100246.34
2022-10-15T18:14:29.252Z,100247.45
2022-10-15T18:16:56.599Z,100250.59
2022-10-15T18:19:25.847Z,100246.69
2022-10-15T18:21:53.049Z,100252.70
2022-10-15T18:24:22.133Z,100254.84
2022-10-15T18:26:50.959Z,100258.91
2022-10-15T18:29:18.773Z,100261.39
2022-10-15T18:31:47.263Z,100259.46
2022-10-15T18:34:14.737Z,100257.15
2022-10-15T18:36:43.666Z,100265.28
2022-10-15T18:39:11.765Z,100266.04
2022-10-15T18:41:40.274Z,100267.92
2022-10-15T18:44:14.903Z,100271.60
2022-10-15T18:46:45.143Z,100273.48
2022-10-15T18:49:15.020Z,100277.54
2022-10-15T18:51:42.271Z,100278.52
2022-10-15T18:54:11.020Z,100279.61
2022-10-15T18:56:39.043Z,100278.43
2022-10-15T18:59:06.181Z,100278.01
2022-10-15T19:01:42.049Z,100281.48
2022-10-15T19:04:12.405Z,100286.43
2022-10-15T19:06:42.894Z,100289.02
2022-10-15T19:09:14.138Z,100293.12
2022-10-15T19:11:43.536Z,100295.30
2022-10-15T19:14:11.401Z,100291.66
2022-10-15T19:16:39.068Z,100294.78
2022-10-15T19:19:13.072Z,100296.73
2022-10-15T19:21:40.128Z,100299.48
2022-10-15T19:24:07.078Z,100300.02
2022-10-15T19:26:34.948Z,100302.84
2022-10-15T19:29:02.728Z,100299.34
2022-10-15T19:31:38.944Z,100302.83
2022-10-15T19:34:06.634Z,100305.54
2022-10-15T19:36:42.984Z,100305.55
2022-10-15T19:39:15.722Z,100308.01
2022-10-15T19:41:44.584Z,100312.06
2022-10-15T19:44:14.020Z,100315.35
2022-10-15T19:46:41.154Z,100318.33
2022-10-15T19:49:11.222Z,100320.02
2022-10-15T19:51:38.445Z,100317.48
2022-10-15T19:54:05.440Z,100324.43
2022-10-15T19:56:33.168Z,100326.02
2022-10-15T19:59:03.129Z,100333.16
2022-10-15T20:01:30.701Z,100333.20
2022-10-15T20:04:03.204Z,100340.80
2022-10-15T20:06:33.781Z,100340.41
2022-10-15T20:11:45.690Z,100343.03
2022-10-15T20:14:13.121Z,100346.64
2022-10-15T20:16:40.116Z,100347.56
2022-10-15T20:19:07.247Z,100351.11
2022-10-15T20:21:34.259Z,100353.62
2022-10-15T20:24:04.957Z,100355.24
2022-10-15T20:26:33.121Z,100357.60
2022-10-15T20:29:00.285Z,100360.88
2022-10-15T20:31:32.249Z,100365.65
2022-10-15T20:33:59.298Z,100367.61
2022-10-15T20:36:27.436Z,100368.01
2022-10-15T20:38:57.530Z,100371.27
2022-10-15T20:41:24.599Z,100372.14
2022-10-15T20:43:55.014Z,100367.36
2022-10-15T20:46:31.673Z,100368.99
2022-10-15T20:49:07.603Z,100368.45
2022-10-15T20:51:37.066Z,100369.02
2022-10-15T20:54:04.228Z,100366.98
2022-10-15T20:56:31.503Z,100365.73
2022-10-15T20:58:58.552Z,100368.08
2022-10-15T21:01:25.725Z,100372.07
2022-10-15T21:03:52.761Z,100375.52
2022-10-15T21:06:20.782Z,100376.61
2022-10-15T21:08:47.896Z,100380.20
2022-10-15T21:11:15.291Z,100384.95
2022-10-15T21:13:42.293Z,100381.13
2022-10-15T21:16:09.725Z,100380.16
2022-10-15T21:18:37.673Z,100381.05
2022-10-15T21:21:07.971Z,100377.84
2022-10-15T21:23:36.047Z,100375.81
2022-10-15T21:26:15.980Z,100373.39
2022-10-15T21:28:44.109Z,100373.67
2022-10-15T21:31:13.523Z,100374.93
2022-10-15T21:33:41.708Z,100375.34
2022-10-15T21:36:22.195Z,100378.58
2022-10-15T21:39:02.608Z,100372.83
2022-10-15T21:41:31.998Z,100374.61
2022-10-15T21:44:00.533Z,100372.44
2022-10-15T21:46:28.149Z,100374.87
2022-10-15T21:48:55.168Z,100373.35
2022-10-15T21:51:25.452Z,100378.06
2022-10-15T21:53:53.934Z,100377.48
2022-10-15T21:56:21.946Z,100379.33
2022-10-15T21:58:49.570Z,100377.30
2022-10-15T22:01:19.828Z,100385.70
2022-10-15T22:03:48.113Z,100389.40
2022-10-15T22:06:15.988Z,100390.34
2022-10-15T22:08:43.983Z,100392.07
2022-10-15T22:14:00.344Z,100393.27
2022-10-15T22:16:28.630Z,100393.61
2022-10-15T22:18:57.099Z,100390.83
2022-10-15T22:21:27.335Z,100391.20
2022-10-15T22:23:58.431Z,100390.69
2022-10-15T22:26:28.507Z,100392.57
2022-10-15T22:28:57.649Z,100393.23
2022-10-15T22:31:25.517Z,100391.05
2022-10-15T22:33:53.604Z,100391.69
2022-10-15T22:36:26.756Z,100391.22
2022-10-15T22:38:57.269Z,100392.52
2022-10-15T22:41:24.818Z,100395.61
2022-10-15T22:43:51.976Z,100394.41
2022-10-15T22:46:18.997Z,100392.67
2022-10-15T22:48:46.248Z,100395.17
2022-10-15T22:51:14.117Z,100394.79
2022-10-15T22:53:41.821Z,100396.63
2022-10-15T22:56:15.428Z,100399.52
2022-10-15T22:58:43.258Z,100402.15
2022-10-15T23:01:40.119Z,100402.94
2022-10-15T23:04:08.445Z,100403.52
2022-10-15T23:06:37.162Z,100408.77
2022-10-15T23:09:06.430Z,100415.71
2022-10-15T23:11:40.277Z,100416.80
2022-10-15T23:14:13.425Z,100413.35
2022-10-15T23:16:43.165Z,100414.15
2022-10-15T23:19:16.941Z,100418.55
2022-10-15T23:21:51.264Z,100418.34
2022-10-15T23:24:20.900Z,100419.37
2022-10-15T23:26:48.195Z,100419.58
2022-10-15T23:29:18.279Z,100423.89
2022-10-15T23:31:46.206Z,100425.14
2022-10-15T23:34:15.762Z,100428.27
2022-10-15T23:36:43.407Z,100429.13
2022-10-15T23:39:19.619Z,100431.96
2022-10-15T23:41:47.556Z,100434.81
2022-10-15T23:44:14.676Z,100434.65
2022-10-15T23:46:41.943Z,100433.96
2022-10-15T23:49:09.387Z,100432.20
2022-10-15T23:51:37.212Z,100426.33
2022-10-15T23:54:12.983Z,100427.13
2022-10-15T23:56:40.053Z,100425.98
2022-10-15T23:59:07.038Z,100425.44
